Sunday, October 22, 2017, 8:38 PM EDT
Back to Local

K12N, Aeroflex-andover Airport

Location: Newton, NJ, United States Lat: 41.017
Local Time: 8:38 PM EDT ( 0:38 GMT) Lon: -74.733
Time Zone: US/Eastern Elev: 583 ft

Show me the last for .
Show Decoded

2017-10-22 19:54 METAR K12N 222354Z AUTO 00000KT 12/11 A3036 RMK AO1 SLP283 T01220106 10244 20122
                 53006 =
2017-10-22 18:54 METAR K12N 222254Z AUTO 00000KT 14/09 A3035 RMK AO1 SLP280 T01440094 =
2017-10-22 17:54 METAR K12N 222154Z AUTO 00000KT 18/10 A3034 RMK AO1 SLP277 T01780100 =
2017-10-22 16:54 METAR K12N 222054Z AUTO VRB03KT 23/08 A3034 RMK AO1 SLP273 T02280078 58007 =
2017-10-22 15:54 METAR K12N 221954Z AUTO 22008KT 23/07 A3035 RMK AO1 SLP278 T02330072 =
2017-10-22 14:54 METAR K12N 221854Z AUTO 19006KT 24/06 A3035 RMK AO1 SLP275 T02440061 =
2017-10-22 13:54 METAR K12N 221754Z AUTO 22007KT 24/06 A3036 RMK AO1 SLP279 T02390056 10239 20061
                 58015 =
2017-10-22 12:54 METAR K12N 221654Z AUTO VRB03KT 23/07 A3038 RMK AO1 SLP287 T02330072 =
2017-10-22 11:54 METAR K12N 221554Z AUTO VRB05KT 22/08 A3039 RMK AO1 SLP291 T02220083 =
2017-10-22 10:54 METAR K12N 221454Z AUTO 00000KT 19/12 A3040 RMK AO1 SLP295 T01940117 58006 =
2017-10-22 09:54 METAR K12N 221354Z AUTO 00000KT 13/11 A3041 RMK AO1 SLP300 T01330111 =
2017-10-22 08:54 METAR K12N 221254Z AUTO 00000KT 09/09 A3042 RMK AO1 SLP305 T00890089 =
2017-10-22 07:54 METAR K12N 221154Z AUTO 00000KT 06/06 A3042 RMK AO1 SLP305 T00610056 10067 20050
                 53015 =
2017-10-22 06:54 METAR K12N 221054Z AUTO 00000KT 06/05 A3040 RMK AO1 SLP297 T00560050 =
2017-10-22 05:54 METAR K12N 220954Z AUTO 00000KT 06/05 A3039 RMK AO1 SLP292 T00560050 =
2017-10-22 04:54 METAR K12N 220854Z AUTO 00000KT 06/05 A3037 RMK AO1 SLP285 T00560050 53004 =
2017-10-22 03:54 METAR K12N 220754Z AUTO 00000KT 06/06 A3036 RMK AO1 SLP281 T00560056 =
2017-10-22 02:54 METAR K12N 220654Z AUTO 00000KT 06/06 A3037 RMK AO1 SLP283 T00610056 =
2017-10-22 01:54 METAR K12N 220554Z AUTO 00000KT 07/06 A3036 RMK AO1 SLP280 T00670061 10117 20067
                 58002 =
2017-10-22 00:54 METAR K12N 220454Z AUTO 00000KT 07/06 A3037 RMK AO1 SLP283 T00720061 402440044 =
2017-10-21 23:54 METAR K12N 220354Z AUTO 00000KT 08/07 A3037 RMK AO1 SLP285 T00780072 =
2017-10-21 22:54 METAR K12N 220254Z AUTO 00000KT 08/08 A3037 RMK AO1 SLP283 T00830078 51005 =
2017-10-21 21:54 METAR K12N 220154Z AUTO 00000KT 09/08 A3037 RMK AO1 SLP285 T00890083 =
2017-10-21 20:54 METAR K12N 220054Z AUTO 00000KT 11/09 A3036 RMK AO1 SLP286 T01060089 =

Support USWX by starting your Amazon purchase here.